createdAt,value
2022-08-10T00:01:01.695Z,65.86
2022-08-10T00:03:29.826Z,66.00
2022-08-10T00:05:59.289Z,66.33
2022-08-10T00:08:27.647Z,66.56
2022-08-10T00:10:57.024Z,66.61
2022-08-10T00:13:26.386Z,66.52
2022-08-10T00:15:55.434Z,66.84
2022-08-10T00:18:35.105Z,67.17
2022-08-10T00:21:06.852Z,67.30
2022-08-10T00:23:35.513Z,67.65
2022-08-10T00:26:04.399Z,67.67
2022-08-10T00:28:32.845Z,67.69
2022-08-10T00:31:01.185Z,67.98
2022-08-10T00:33:29.619Z,68.26
2022-08-10T00:35:57.722Z,68.34
2022-08-10T00:38:27.030Z,68.58
2022-08-10T00:40:55.262Z,68.84
2022-08-10T00:43:24.222Z,68.91
2022-08-10T00:45:58.836Z,69.18
2022-08-10T00:48:29.172Z,69.35
2022-08-10T00:50:58.790Z,69.42
2022-08-10T00:53:28.824Z,69.88
2022-08-10T00:57:05.138Z,70.08
2022-08-10T00:58:46.060Z,70.01
2022-08-10T01:02:07.406Z,70.48
2022-08-10T01:04:36.426Z,70.67
2022-08-10T01:07:07.050Z,71.03
2022-08-10T01:09:57.025Z,71.17
2022-08-10T01:12:39.596Z,71.25
2022-08-10T01:15:15.473Z,71.51
2022-08-10T01:17:52.235Z,71.84
2022-08-10T01:20:31.251Z,71.99
2022-08-10T01:23:41.178Z,72.41
2022-08-10T01:26:32.102Z,72.49
2022-08-10T01:29:17.575Z,72.43
2022-08-10T01:31:52.446Z,72.50
2022-08-10T01:34:25.403Z,72.50
2022-08-10T01:37:01.038Z,72.62
2022-08-10T01:39:34.745Z,72.77
2022-08-10T01:42:06.252Z,72.85
2022-08-10T01:44:37.853Z,73.14
2022-08-10T01:47:27.571Z,73.06
2022-08-10T01:50:04.285Z,73.37
2022-08-10T01:52:34.198Z,73.21
2022-08-10T01:55:02.360Z,73.38
2022-08-10T01:57:33.224Z,73.56
2022-08-10T02:00:03.801Z,73.61
2022-08-10T02:02:36.198Z,74.02
2022-08-10T02:05:06.523Z,74.04
2022-08-10T02:07:37.877Z,74.20
2022-08-10T02:10:11.996Z,74.27
2022-08-10T02:12:42.328Z,74.47
2022-08-10T02:15:14.562Z,74.71
2022-08-10T02:17:57.071Z,74.57
2022-08-10T02:20:33.701Z,74.87
2022-08-10T02:23:05.741Z,74.78
2022-08-10T02:25:41.002Z,74.79
2022-08-10T02:28:30.158Z,74.94
2022-08-10T02:31:01.642Z,75.03
2022-08-10T02:33:32.119Z,75.16
2022-08-10T02:36:07.388Z,75.27
2022-08-10T02:38:59.235Z,75.59
2022-08-10T02:42:18.762Z,75.79
2022-08-10T02:45:24.326Z,75.67
2022-08-10T02:47:22.837Z,75.97
2022-08-10T02:50:03.332Z,76.22
2022-08-10T02:52:39.669Z,76.01
2022-08-10T02:55:17.998Z,76.35
2022-08-10T02:58:17.166Z,76.14
2022-08-10T03:00:45.865Z,76.18
2022-08-10T03:03:20.615Z,76.29
2022-08-10T03:05:55.890Z,76.58
2022-08-10T03:08:27.932Z,76.66
2022-08-10T03:10:58.382Z,76.71
2022-08-10T03:13:27.236Z,76.73
2022-08-10T03:15:57.355Z,76.94
2022-08-10T03:18:26.373Z,77.14
2022-08-10T03:20:57.856Z,77.06
2022-08-10T03:23:28.354Z,76.91
2022-08-10T03:25:58.902Z,77.00
2022-08-10T03:28:30.363Z,76.96
2022-08-10T03:31:00.413Z,76.76
2022-08-10T03:33:30.905Z,77.33
2022-08-10T03:36:42.691Z,77.50
2022-08-10T03:38:51.898Z,77.45
2022-08-10T03:41:24.233Z,77.69
2022-08-10T03:43:54.537Z,77.71
2022-08-10T03:46:26.018Z,78.03
2022-08-10T03:48:57.007Z,78.22
2022-08-10T03:51:28.481Z,78.12
2022-08-10T03:54:03.055Z,78.19
2022-08-10T03:56:36.052Z,78.36
2022-08-10T03:59:05.587Z,78.52
2022-08-10T04:02:46.227Z,78.45
2022-08-10T04:04:25.033Z,78.56
2022-08-10T04:06:56.477Z,78.82
2022-08-10T04:09:29.730Z,78.79
2022-08-10T04:12:15.025Z,78.83
2022-08-10T04:14:51.144Z,78.82
2022-08-10T04:17:59.366Z,78.80
2022-08-10T04:20:19.681Z,79.14
2022-08-10T04:22:53.494Z,79.06
2022-08-10T04:25:23.906Z,79.00
2022-08-10T04:27:53.547Z,78.98
2022-08-10T04:30:21.962Z,78.92
2022-08-10T04:32:54.020Z,78.76
2022-08-10T04:35:23.885Z,78.83
2022-08-10T04:37:57.078Z,78.89
2022-08-10T04:40:29.158Z,78.66
2022-08-10T04:43:02.354Z,78.39
2022-08-10T04:45:50.240Z,78.33
2022-08-10T04:48:42.424Z,78.14
2022-08-10T04:51:18.047Z,78.03
2022-08-10T04:54:05.019Z,77.90
2022-08-10T04:56:39.689Z,77.59
2022-08-10T04:59:09.353Z,77.55
2022-08-10T05:02:29.846Z,77.82
2022-08-10T05:04:34.627Z,77.58
2022-08-10T05:07:09.006Z,77.58
2022-08-10T05:10:01.133Z,77.47
2022-08-10T05:12:27.959Z,77.33
2022-08-10T05:14:56.303Z,77.43
2022-08-10T05:17:27.293Z,77.55
2022-08-10T05:20:04.989Z,77.49
2022-08-10T05:22:38.924Z,77.95
2022-08-10T05:25:11.165Z,77.63
2022-08-10T05:27:40.074Z,77.51
2022-08-10T05:30:09.506Z,77.25
2022-08-10T05:32:56.914Z,77.23
2022-08-10T05:35:57.697Z,77.30
2022-08-10T05:38:18.656Z,77.22
2022-08-10T05:40:50.603Z,77.35
2022-08-10T05:43:20.380Z,77.35
2022-08-10T05:46:19.940Z,77.15
2022-08-10T05:48:57.047Z,77.06
2022-08-10T05:51:27.763Z,76.74
2022-08-10T05:54:02.199Z,76.58
2022-08-10T05:56:55.169Z,76.19
2022-08-10T06:00:31.185Z,76.14
2022-08-10T06:02:41.039Z,76.45
2022-08-10T06:05:11.909Z,76.47
2022-08-10T06:07:42.710Z,76.43
2022-08-10T06:10:31.371Z,76.42
2022-08-10T06:13:26.838Z,76.18
2022-08-10T06:16:02.300Z,76.22
2022-08-10T06:18:30.979Z,75.89
2022-08-10T06:20:59.257Z,75.63
2022-08-10T06:23:30.062Z,74.96
2022-08-10T06:26:10.993Z,74.77
2022-08-10T06:28:56.073Z,74.51
2022-08-10T06:31:48.521Z,74.04
2022-08-10T06:34:22.284Z,73.72
2022-08-10T06:36:53.019Z,73.72
2022-08-10T06:39:33.634Z,73.31
2022-08-10T06:42:16.051Z,73.12
2022-08-10T06:44:53.786Z,72.37
2022-08-10T06:47:25.538Z,72.49
2022-08-10T06:49:59.916Z,73.18
2022-08-10T06:52:34.075Z,72.57
2022-08-10T06:55:05.393Z,72.73
2022-08-10T06:57:40.077Z,72.40
2022-08-10T07:00:11.439Z,72.16
2022-08-10T07:02:46.052Z,70.87
2022-08-10T07:05:21.640Z,71.05
2022-08-10T07:07:52.563Z,70.78
2022-08-10T07:10:23.643Z,70.35
2022-08-10T07:12:59.090Z,70.18
2022-08-10T07:16:00.240Z,70.10
2022-08-10T07:18:20.628Z,69.80
2022-08-10T07:20:50.962Z,69.26
2022-08-10T07:23:58.508Z,69.01
2022-08-10T07:26:10.204Z,69.07
2022-08-10T07:28:38.830Z,68.98
2022-08-10T07:31:34.006Z,69.22
2022-08-10T07:34:00.125Z,69.25
2022-08-10T07:36:30.750Z,68.96
2022-08-10T07:39:01.136Z,68.67
2022-08-10T07:41:32.288Z,68.76
2022-08-10T07:44:03.329Z,68.71
2022-08-10T07:46:35.914Z,68.78
2022-08-10T07:49:19.261Z,69.14
2022-08-10T07:51:54.596Z,68.48
2022-08-10T07:54:26.449Z,68.06
2022-08-10T07:57:00.722Z,67.78
2022-08-10T07:59:38.118Z,67.48
2022-08-10T08:02:13.445Z,68.08
2022-08-10T08:04:43.360Z,67.84
2022-08-10T08:07:13.614Z,67.79
2022-08-10T08:09:57.747Z,68.07
2022-08-10T08:12:33.616Z,67.61
2022-08-10T08:16:15.696Z,67.68
2022-08-10T08:17:59.713Z,67.68
2022-08-10T08:20:29.452Z,67.39
2022-08-10T08:24:05.429Z,66.60
2022-08-10T08:25:49.539Z,66.12
2022-08-10T08:28:18.669Z,64.88
2022-08-10T08:30:49.076Z,64.04
2022-08-10T08:33:41.496Z,63.09
2022-08-10T08:36:09.151Z,63.82
2022-08-10T08:38:38.720Z,62.33
2022-08-10T08:41:32.193Z,60.60
2022-08-10T08:44:07.690Z,60.51
2022-08-10T08:46:58.818Z,60.70
2022-08-10T08:50:10.260Z,59.72
2022-08-10T08:52:51.191Z,60.19
2022-08-10T08:56:01.413Z,58.87
2022-08-10T08:58:47.874Z,58.28
2022-08-10T09:01:40.952Z,58.07
2022-08-10T09:04:24.151Z,57.94
2022-08-10T09:07:43.771Z,57.11
2022-08-10T09:10:11.669Z,57.18
2022-08-10T09:12:52.893Z,57.34
2022-08-10T09:15:40.822Z,57.84
2022-08-10T09:18:19.182Z,57.60
2022-08-10T09:20:50.803Z,56.73
2022-08-10T09:24:02.104Z,56.09
2022-08-10T09:26:21.765Z,56.58
2022-08-10T09:29:11.913Z,56.16
2022-08-10T09:33:05.834Z,55.78
2022-08-10T09:36:21.165Z,55.94
2022-08-10T09:38:02.552Z,56.17
2022-08-10T09:40:59.993Z,55.75
2022-08-10T09:43:41.435Z,56.46
2022-08-10T09:46:17.999Z,56.81
2022-08-10T09:48:55.608Z,56.19
2022-08-10T09:51:48.441Z,56.60
2022-08-10T09:54:26.934Z,57.04
2022-08-10T09:57:41.598Z,56.83
2022-08-10T10:00:01.621Z,56.46
2022-08-10T10:02:39.379Z,56.92
2022-08-10T10:05:24.860Z,56.90
2022-08-10T10:08:00.256Z,56.65
2022-08-10T10:10:37.239Z,56.57
2022-08-10T10:13:57.369Z,56.63
2022-08-10T10:16:44.869Z,56.05
2022-08-10T10:19:40.049Z,55.59
2022-08-10T10:22:26.481Z,55.22
2022-08-10T10:25:00.819Z,55.00
2022-08-10T10:27:47.933Z,54.54
2022-08-10T10:30:20.430Z,54.29
2022-08-10T10:33:00.055Z,54.04
2022-08-10T10:35:33.230Z,53.78
2022-08-10T10:38:04.088Z,54.15
2022-08-10T10:40:41.483Z,55.53
2022-08-10T10:43:22.831Z,54.03
2022-08-10T10:46:04.706Z,53.35
2022-08-10T10:48:41.436Z,52.59
2022-08-10T10:51:16.270Z,52.30
2022-08-10T10:53:50.770Z,52.24
2022-08-10T10:56:26.613Z,52.04
2022-08-10T10:59:53.745Z,50.16
2022-08-10T11:02:23.127Z,48.41
2022-08-10T11:04:59.276Z,48.28
2022-08-10T11:07:37.187Z,48.47
2022-08-10T11:10:32.386Z,48.03
2022-08-10T11:14:22.904Z,48.57
2022-08-10T11:16:05.505Z,48.54
2022-08-10T11:18:54.699Z,47.95
2022-08-10T11:21:31.714Z,46.70
2022-08-10T11:24:46.745Z,44.83
2022-08-10T11:27:07.199Z,45.63
2022-08-10T11:29:43.894Z,45.38
2022-08-10T11:32:22.282Z,46.14
2022-08-10T11:35:10.628Z,46.50
2022-08-10T11:38:31.881Z,46.23
2022-08-10T11:40:38.729Z,46.14
2022-08-10T11:43:12.565Z,45.88
2022-08-10T11:45:51.981Z,46.17
2022-08-10T11:48:53.102Z,45.31
2022-08-10T11:51:22.385Z,45.02
2022-08-10T11:53:58.157Z,44.55
2022-08-10T11:56:31.596Z,44.45
2022-08-10T11:59:17.636Z,44.82
2022-08-10T12:01:46.873Z,45.49
2022-08-10T12:04:17.500Z,45.73
2022-08-10T12:06:56.450Z,45.10
2022-08-10T12:10:11.244Z,44.82
2022-08-10T12:12:14.739Z,44.73
2022-08-10T12:14:49.566Z,44.62
2022-08-10T12:17:21.539Z,44.59
2022-08-10T12:20:01.817Z,43.35
2022-08-10T12:22:37.565Z,43.79
2022-08-10T12:25:18.155Z,42.61
2022-08-10T12:28:10.386Z,43.33
2022-08-10T12:30:46.945Z,42.96
2022-08-10T12:33:22.605Z,44.52
2022-08-10T12:36:17.294Z,44.31
2022-08-10T12:38:53.896Z,44.31
2022-08-10T12:41:43.857Z,43.30
2022-08-10T12:44:16.764Z,42.38
2022-08-10T12:46:54.326Z,41.79
2022-08-10T12:52:20.650Z,40.98
2022-08-10T12:54:52.386Z,40.10
2022-08-10T12:57:24.149Z,39.76
2022-08-10T12:59:54.730Z,39.55
2022-08-10T13:02:27.623Z,39.12
2022-08-10T13:05:00.306Z,39.41
2022-08-10T13:08:03.522Z,39.62
2022-08-10T13:10:23.573Z,39.22
2022-08-10T13:12:55.637Z,39.34
2022-08-10T13:15:48.614Z,38.84
2022-08-10T13:18:18.702Z,37.88
2022-08-10T13:20:52.147Z,37.05
2022-08-10T13:23:23.345Z,36.57
2022-08-10T13:25:55.272Z,37.34
2022-08-10T13:28:36.460Z,37.34
2022-08-10T13:31:11.614Z,37.40
2022-08-10T13:34:41.300Z,37.63
2022-08-10T13:36:39.837Z,36.46
2022-08-10T13:39:09.551Z,35.99
2022-08-10T13:41:43.683Z,37.16
2022-08-10T13:44:15.817Z,37.92
2022-08-10T13:46:54.128Z,37.65
2022-08-10T13:49:22.714Z,37.42
2022-08-10T13:51:53.897Z,37.99
2022-08-10T13:54:28.734Z,37.48
2022-08-10T13:57:00.186Z,37.71
2022-08-10T14:00:35.506Z,37.95
2022-08-10T14:02:27.022Z,38.29
2022-08-10T14:04:58.748Z,38.24
2022-08-10T14:07:28.809Z,38.14
2022-08-10T14:10:07.364Z,38.80
2022-08-10T14:12:39.699Z,38.14
2022-08-10T14:15:11.190Z,38.49
2022-08-10T14:17:44.729Z,38.75
2022-08-10T14:20:18.048Z,37.71
2022-08-10T14:22:49.863Z,36.78
2022-08-10T14:25:17.888Z,36.99
2022-08-10T14:28:03.425Z,36.92
2022-08-10T14:30:34.451Z,36.73
2022-08-10T14:33:04.840Z,37.11
2022-08-10T14:36:23.228Z,37.21
2022-08-10T14:38:30.045Z,38.09
2022-08-10T14:41:01.499Z,37.49
2022-08-10T14:43:36.152Z,37.19
2022-08-10T14:46:07.254Z,35.94
2022-08-10T14:48:39.834Z,35.65
2022-08-10T14:51:10.435Z,35.06
2022-08-10T14:53:42.391Z,35.20
2022-08-10T14:56:14.097Z,36.60
2022-08-10T14:58:59.036Z,37.13
2022-08-10T15:02:37.721Z,36.56
2022-08-10T15:04:28.782Z,36.59
2022-08-10T15:07:01.328Z,36.63
2022-08-10T15:09:59.266Z,37.34
2022-08-10T15:12:27.570Z,36.40
2022-08-10T15:15:01.065Z,35.78
2022-08-10T15:17:35.013Z,36.35
2022-08-10T15:20:14.824Z,36.21
2022-08-10T15:22:50.337Z,36.39
2022-08-10T15:25:25.393Z,36.36
2022-08-10T15:28:05.310Z,36.26
2022-08-10T15:30:40.780Z,37.00
2022-08-10T15:33:57.510Z,36.89
2022-08-10T15:37:02.017Z,36.60
2022-08-10T15:40:24.725Z,35.95
2022-08-10T15:42:35.189Z,35.77
2022-08-10T15:45:04.083Z,35.21
2022-08-10T15:47:45.933Z,35.10
2022-08-10T15:50:18.190Z,35.82
2022-08-10T15:53:01.688Z,36.14
2022-08-10T15:55:43.777Z,36.33
2022-08-10T15:58:39.129Z,35.42
2022-08-10T16:02:13.853Z,36.15
2022-08-10T16:04:08.513Z,36.74
2022-08-10T16:06:41.277Z,37.04
2022-08-10T16:10:23.751Z,36.51
2022-08-10T16:12:09.679Z,36.10
2022-08-10T16:14:38.761Z,36.52
2022-08-10T16:17:11.891Z,36.24
2022-08-10T16:19:48.496Z,36.45
2022-08-10T16:22:34.429Z,36.06
2022-08-10T16:25:15.365Z,36.76
2022-08-10T16:27:45.349Z,36.99
2022-08-10T16:30:14.215Z,37.60
2022-08-10T16:32:43.308Z,38.41
2022-08-10T16:35:19.030Z,38.93
2022-08-10T16:37:56.548Z,38.66
2022-08-10T16:40:29.118Z,39.46
2022-08-10T16:42:58.698Z,39.95
2022-08-10T16:45:34.322Z,40.29
2022-08-10T16:48:03.225Z,40.02
2022-08-10T16:50:36.648Z,40.22
2022-08-10T16:53:07.863Z,40.83
2022-08-10T16:55:49.431Z,41.46
2022-08-10T16:58:21.936Z,41.58
2022-08-10T17:00:51.359Z,42.61
2022-08-10T17:04:06.516Z,43.70
2022-08-10T17:06:20.829Z,44.54
2022-08-10T17:08:53.138Z,45.25
2022-08-10T17:11:24.505Z,44.99
2022-08-10T17:13:57.099Z,45.20
2022-08-10T17:16:27.354Z,45.16
2022-08-10T17:18:57.963Z,45.33
2022-08-10T17:21:32.357Z,45.04
2022-08-10T17:24:05.038Z,45.16
2022-08-10T17:26:38.367Z,45.97
2022-08-10T17:29:50.569Z,46.81
2022-08-10T17:32:08.145Z,47.17
2022-08-10T17:34:39.807Z,47.28
2022-08-10T17:37:14.924Z,47.65
2022-08-10T17:39:48.204Z,47.75
2022-08-10T17:42:21.906Z,48.36
2022-08-10T17:44:52.312Z,48.53
2022-08-10T17:47:23.672Z,48.87
2022-08-10T17:49:57.081Z,49.36
2022-08-10T17:52:31.852Z,49.60
2022-08-10T17:55:04.282Z,49.41
2022-08-10T17:57:37.463Z,49.80
2022-08-10T18:00:08.308Z,49.86
2022-08-10T18:02:40.477Z,50.44
2022-08-10T18:05:11.215Z,50.59
2022-08-10T18:07:47.748Z,50.99
2022-08-10T18:10:19.098Z,51.33
2022-08-10T18:12:49.001Z,51.56
2022-08-10T18:15:22.111Z,51.71
2022-08-10T18:17:59.115Z,51.68
2022-08-10T18:20:33.938Z,52.39
2022-08-10T18:23:05.153Z,52.09
2022-08-10T18:25:36.171Z,52.24
2022-08-10T18:28:06.661Z,52.59
2022-08-10T18:30:37.664Z,52.89
2022-08-10T18:33:11.954Z,52.71
2022-08-10T18:35:40.728Z,53.46
2022-08-10T18:38:12.736Z,53.10
2022-08-10T18:40:44.814Z,53.52
2022-08-10T18:44:06.395Z,53.84
2022-08-10T18:46:11.251Z,53.97
2022-08-10T18:48:50.795Z,54.27
2022-08-10T18:51:25.415Z,54.30
2022-08-10T18:54:06.309Z,54.68
2022-08-10T18:56:56.309Z,54.88
2022-08-10T19:00:04.027Z,55.11
2022-08-10T19:02:55.097Z,55.08
2022-08-10T19:05:38.821Z,55.60
2022-08-10T19:08:30.379Z,55.93
2022-08-10T19:11:04.812Z,56.07
2022-08-10T19:13:38.107Z,56.26
2022-08-10T19:16:15.089Z,56.93
2022-08-10T19:18:51.520Z,56.68
2022-08-10T19:21:24.761Z,56.74
2022-08-10T19:24:04.334Z,57.33
2022-08-10T19:26:45.742Z,57.34
2022-08-10T19:30:11.757Z,57.38
2022-08-10T19:32:32.799Z,57.38
2022-08-10T19:35:09.627Z,57.89
2022-08-10T19:37:59.955Z,58.30
2022-08-10T19:40:44.679Z,58.42
2022-08-10T19:43:59.308Z,58.82
2022-08-10T19:46:28.470Z,59.01
2022-08-10T19:49:03.705Z,59.02
2022-08-10T19:51:48.421Z,59.37
2022-08-10T19:54:23.594Z,59.50
2022-08-10T19:56:59.552Z,59.50
2022-08-10T20:00:15.164Z,59.81
2022-08-10T20:02:27.744Z,60.07
2022-08-10T20:05:13.220Z,60.49
2022-08-10T20:07:52.355Z,60.70
2022-08-10T20:10:25.286Z,60.77
2022-08-10T20:13:01.797Z,61.21
2022-08-10T20:15:42.281Z,61.31
2022-08-10T20:18:14.240Z,61.26
2022-08-10T20:20:49.495Z,61.86
2022-08-10T20:23:21.011Z,61.71
2022-08-10T20:25:56.792Z,62.04
2022-08-10T20:28:35.324Z,62.11
2022-08-10T20:31:17.222Z,62.57
2022-08-10T20:34:01.001Z,62.64
2022-08-10T20:36:33.241Z,62.67
2022-08-10T20:39:11.468Z,63.02
2022-08-10T20:41:58.022Z,63.10
2022-08-10T20:44:38.002Z,63.35
2022-08-10T20:47:12.993Z,63.29
2022-08-10T20:49:48.737Z,63.71
2022-08-10T20:52:17.070Z,63.54
2022-08-10T20:54:52.411Z,63.90
2022-08-10T20:58:03.905Z,64.00
2022-08-10T21:00:42.855Z,64.23
2022-08-10T21:03:43.933Z,64.45
2022-08-10T21:06:42.610Z,64.54
2022-08-10T21:09:25.577Z,64.70
2022-08-10T21:12:18.388Z,65.04
2022-08-10T21:14:55.329Z,65.04
2022-08-10T21:17:44.726Z,65.38
2022-08-10T21:20:30.707Z,65.41
2022-08-10T21:23:20.914Z,65.20
2022-08-10T21:26:07.590Z,65.41
2022-08-10T21:29:02.706Z,65.58
2022-08-10T21:31:48.310Z,65.50
2022-08-10T21:34:35.506Z,65.57
2022-08-10T21:37:12.369Z,65.63
2022-08-10T21:39:54.979Z,65.87
2022-08-10T21:42:53.981Z,66.21
2022-08-10T21:45:59.326Z,66.07
2022-08-10T21:48:57.339Z,66.11
2022-08-10T21:52:06.869Z,66.40
2022-08-10T21:55:09.454Z,66.74
2022-08-10T21:58:04.955Z,67.02
2022-08-10T22:00:55.920Z,67.02
2022-08-10T22:03:44.061Z,67.24
2022-08-10T22:06:33.688Z,67.38
2022-08-10T22:09:24.263Z,67.62
2022-08-10T22:12:30.856Z,67.92
2022-08-10T22:15:23.679Z,68.19
2022-08-10T22:18:31.826Z,68.16
2022-08-10T22:21:27.100Z,68.57
2022-08-10T22:24:33.751Z,68.68
2022-08-10T22:27:56.511Z,68.93
2022-08-10T22:31:02.632Z,68.88
2022-08-10T22:34:02.561Z,69.29
2022-08-10T22:37:09.696Z,69.68
2022-08-10T22:40:17.325Z,69.70
2022-08-10T22:43:09.946Z,69.79
2022-08-10T22:46:02.503Z,69.77
2022-08-10T22:48:47.935Z,70.04
2022-08-10T22:51:27.117Z,70.31
2022-08-10T22:54:30.463Z,70.71
2022-08-10T22:57:19.133Z,70.77
2022-08-10T22:59:50.075Z,70.84
2022-08-10T23:02:29.414Z,71.56
2022-08-10T23:05:03.223Z,71.42
2022-08-10T23:07:33.375Z,71.52
2022-08-10T23:10:05.408Z,71.66
2022-08-10T23:12:39.029Z,72.09
2022-08-10T23:15:35.871Z,72.36
2022-08-10T23:18:25.885Z,72.24
2022-08-10T23:20:58.415Z,72.64
2022-08-10T23:23:28.937Z,72.95
2022-08-10T23:25:58.660Z,73.18
2022-08-10T23:28:38.898Z,73.40
2022-08-10T23:32:06.327Z,73.62
2022-08-10T23:34:09.680Z,73.91
2022-08-10T23:36:41.194Z,74.36
2022-08-10T23:39:25.630Z,74.46
2022-08-10T23:42:00.759Z,74.56
2022-08-10T23:44:36.965Z,74.69
2022-08-10T23:47:08.192Z,74.75
2022-08-10T23:49:38.344Z,74.93
2022-08-10T23:52:15.408Z,75.06
2022-08-10T23:54:47.224Z,75.04
2022-08-10T23:57:18.434Z,74.89
2022-08-10T23:59:56.633Z,75.11
